Szafir — 5BFC3 — position and weather

sailwx.info

Track history (hours):
 
Tides and Currents Weather Stations Pressure Air Temp Water Temp Dewpoint Dewpoint Depression Visibility Wind Speed Wind Dir Waves Ship Positions

Szafir

Last reported at 2014-Jul-01 01:25 UTC. Time now 2014-Aug-27 21:14 UTC.
Position N 37°22' W 011°28'.
Warning: this ship's position is 57 days out of date.

Length 113 m; draft 7.4 m.

Type: Cargo ship. MMSI: 209366000.

Date/timePositionNaut miles runAvg speedWind from/ knotsBaromVisibWave heightAir tempDewpointWater temp
2014-Jul-01 01:25N 37°22' W 011°28'455 9.6
2014-Jun-29 02:05N 43°44' W 006°02'510.2
2014-Jun-29 01:33N 43°43' W 005°55'11 9.7
2014-Jun-29 00:23N 43°42' W 005°39'810.1
2014-Jun-28 23:33N 43°42' W 005°28'72 3.6
2014-Jun-28 03:08N 43°36' W 003°48'30610.0
2014-Jun-26 20:33N 48°29' W 005°54'152 9.5
2014-Jun-26 04:33N 50°01' W 002°48'1511.7
2014-Jun-26 03:18N 50°05' W 002°26'3914.2
2014-Jun-26 00:32N 50°17' W 001°28'1414.5
2014-Jun-25 23:32N 50°20' W 001°06'1313.1
2014-Jun-25 22:32N 50°24' W 000°46'1211.2
2014-Jun-25 21:29N 50°27' W 000°28'1010.5
2014-Jun-25 20:30N 50°29' W 000°13'14 9.9
2014-Jun-25 19:08N 50°32' E 000°08'610.1
2014-Jun-25 18:34N 50°34' E 000°17'1111.0
2014-Jun-25 17:33N 50°38' E 000°33'1312.6
2014-Jun-25 16:33N 50°45' E 000°49'1313.2
2014-Jun-25 15:33N 50°53' E 001°06'1412.8
2014-Jun-25 14:26N 51°02' E 001°24'1011.7
2014-Jun-25 13:34N 51°09' E 001°36'1110.6
2014-Jun-25 12:33N 51°16' E 001°48'1010.5
2014-Jun-25 11:33N 51°24' E 001°59'1111.1
2014-Jun-25 10:31N 51°21' E 002°17'1111.1
2014-Jun-25 09:33N 51°23' E 002°34'1111.4
2014-Jun-25 08:33N 51°22' E 002°52'1211.4
2014-Jun-25 07:32N 51°24' E 003°10'1211.8
2014-Jun-25 06:33N 51°25' E 003°29'9 8.6
2014-Jun-25 05:33N 51°25' E 003°42'8 8.2
2014-Jun-25 04:33N 51°22' E 003°55'6 6.4
2014-Jun-25 03:33N 51°22' E 004°05'8 8.1
2014-Jun-25 02:34N 51°18' E 004°16'3 2.9
2014-Jun-25 01:34N 51°17' E 004°20'3 2.4
2014-Jun-25 00:29N 51°15' E 004°23'0 0.0
2014-Jun-24 23:32N 51°15' E 004°23'0 0.0
2014-Jun-24 22:32N 51°15' E 004°23'0 0.0
2014-Jun-24 21:32N 51°15' E 004°23'0 0.0
2014-Jun-24 20:32N 51°15' E 004°23'0 0.0
2014-Jun-24 19:32N 51°15' E 004°23'0 0.0
2014-Jun-24 18:32N 51°15' E 004°23'0 0.0
2014-Jun-24 17:32N 51°15' E 004°23'0 0.0
2014-Jun-24 16:32N 51°15' E 004°23'0 0.0
2014-Jun-24 15:32N 51°15' E 004°23'0 0.0
2014-Jun-24 14:32N 51°15' E 004°23'0 0.0
2014-Jun-24 13:32N 51°15' E 004°23'0 0.0
2014-Jun-24 12:32N 51°15' E 004°23'0 0.0
2014-Jun-24 11:29N 51°15' E 004°23'0 0.0
2014-Jun-24 10:29N 51°15' E 004°23'0 0.0
2014-Jun-24 09:32N 51°15' E 004°23'0 0.0
2014-Jun-24 08:32N 51°15' E 004°23'0 0.0
2014-Jun-24 07:32N 51°15' E 004°23'0 0.0
2014-Jun-24 06:32N 51°15' E 004°23'0 0.0
2014-Jun-24 05:32N 51°15' E 004°23'0 0.0
2014-Jun-24 04:32N 51°15' E 004°23'0 0.0
2014-Jun-24 03:32N 51°15' E 004°23'0 0.0
2014-Jun-24 02:32N 51°15' E 004°23'0 0.0
2014-Jun-24 01:32N 51°15' E 004°23'0 0.0
2014-Jun-24 00:32N 51°15' E 004°23'0 0.0
2014-Jun-23 23:32N 51°15' E 004°23'0 0.0
2014-Jun-23 22:32N 51°15' E 004°23'0 0.0
2014-Jun-23 21:32N 51°15' E 004°23'0 0.0
2014-Jun-23 20:32N 51°15' E 004°23'0 0.0
2014-Jun-23 19:32N 51°15' E 004°23'0 0.0
2014-Jun-23 18:32N 51°15' E 004°23'0 0.0
2014-Jun-23 17:32N 51°15' E 004°23'0 0.0
2014-Jun-23 16:32N 51°15' E 004°23'0 0.0
2014-Jun-23 15:32N 51°15' E 004°23'0 0.0
2014-Jun-23 14:32N 51°15' E 004°23'0 0.0
2014-Jun-23 12:32N 51°15' E 004°23'0 0.0
2014-Jun-23 11:32N 51°15' E 004°23'0 0.0
2014-Jun-23 10:32N 51°15' E 004°23'0 0.0
2014-Jun-23 09:32N 51°15' E 004°23'0 0.0
2014-Jun-23 08:32N 51°15' E 004°23'0 0.0
2014-Jun-23 07:32N 51°15' E 004°23'0 0.0
2014-Jun-23 06:32N 51°15' E 004°23'0 0.0
2014-Jun-23 05:32N 51°15' E 004°23'0 0.0
2014-Jun-23 04:32N 51°15' E 004°23'0 0.0
2014-Jun-23 03:32N 51°15' E 004°23'0 0.0
2014-Jun-23 02:29N 51°15' E 004°23'0 0.0
2014-Jun-23 01:32N 51°15' E 004°23'0 0.0
2014-Jun-23 00:32N 51°15' E 004°23'0 0.0
2014-Jun-22 23:32N 51°15' E 004°23'0 0.0
2014-Jun-22 22:29N 51°15' E 004°23'0 0.0
2014-Jun-22 21:32N 51°15' E 004°23'0 0.0
2014-Jun-22 20:32N 51°15' E 004°23'0 0.0
2014-Jun-22 19:32N 51°15' E 004°23'0 0.0
2014-Jun-22 18:32N 51°15' E 004°23'0 0.0
2014-Jun-22 17:32N 51°15' E 004°23'0 0.0
2014-Jun-22 16:32N 51°15' E 004°23'0 0.0
2014-Jun-22 15:32N 51°15' E 004°23'0 0.0
2014-Jun-22 14:32N 51°15' E 004°23'0 0.0
2014-Jun-22 13:32N 51°15' E 004°23'0 0.0
2014-Jun-22 12:32N 51°15' E 004°23'0 0.0
2014-Jun-22 11:32N 51°15' E 004°23'0 0.0
2014-Jun-22 10:32N 51°15' E 004°23'0 0.0
2014-Jun-22 09:32N 51°15' E 004°23'0 0.0
2014-Jun-22 08:32N 51°15' E 004°23'0 0.0
2014-Jun-22 07:32N 51°15' E 004°23'0 0.0
2014-Jun-22 06:32N 51°15' E 004°23'0 0.0
2014-Jun-22 05:32N 51°15' E 004°23'0 0.0
2014-Jun-22 04:32N 51°15' E 004°23'0 0.0
2014-Jun-22 03:32N 51°15' E 004°23'0 0.0
2014-Jun-22 02:32N 51°15' E 004°23'0 0.0
2014-Jun-22 01:32N 51°15' E 004°23'0 0.0
2014-Jun-22 00:32N 51°15' E 004°23'0 0.0
2014-Jun-21 23:32N 51°15' E 004°23'0 0.0
2014-Jun-21 21:29N 51°15' E 004°23'0 0.0
2014-Jun-21 20:32N 51°15' E 004°23'0 0.0
2014-Jun-21 19:32N 51°15' E 004°23'0 0.0
2014-Jun-21 18:29N 51°15' E 004°23'0 0.0
2014-Jun-21 17:32N 51°15' E 004°23'0 0.0
2014-Jun-21 16:32N 51°15' E 004°23'0 0.0
2014-Jun-21 15:32N 51°15' E 004°23'0 0.0
2014-Jun-21 14:32N 51°15' E 004°23'0 0.0
2014-Jun-21 13:32N 51°15' E 004°23'0 0.0
2014-Jun-21 12:32N 51°15' E 004°23'0 0.0
2014-Jun-21 11:32N 51°15' E 004°23'0 0.0
2014-Jun-21 10:32N 51°15' E 004°23'0 0.0
2014-Jun-21 09:32N 51°15' E 004°23'0 0.0
2014-Jun-21 08:32N 51°15' E 004°23'0 0.0
2014-Jun-21 07:32N 51°15' E 004°23'0 0.0
2014-Jun-21 06:32N 51°15' E 004°23'0 0.0
2014-Jun-21 05:29N 51°15' E 004°23'0 0.0
2014-Jun-21 04:32N 51°15' E 004°23'0 0.0
2014-Jun-21 03:32N 51°15' E 004°23'0 0.0
2014-Jun-21 02:32N 51°15' E 004°23'0 0.0
2014-Jun-21 01:29N 51°15' E 004°23'  
Track history (hours):
 
Tides and Currents Weather Stations Pressure Air Temp Water Temp Dewpoint Dewpoint Depression Visibility Wind Speed Wind Dir Waves Ship Positions

Szafir

Last reported at 2014-Jul-01 01:25 UTC. Time now 2014-Aug-27 21:14 UTC.
Position N 37°22' W 011°28'.
Warning: this ship's position is 57 days out of date.

Length 113 m; draft 7.4 m.

Type: Cargo ship. MMSI: 209366000.

Date/timePositionNaut miles runAvg speedWind from/ knotsBaromVisibWave heightAir tempDewpointWater temp
2014-Jul-01 01:25N 37°22' W 011°28'455 9.6
2014-Jun-29 02:05N 43°44' W 006°02'510.2
2014-Jun-29 01:33N 43°43' W 005°55'11 9.7
2014-Jun-29 00:23N 43°42' W 005°39'810.1
2014-Jun-28 23:33N 43°42' W 005°28'72 3.6
2014-Jun-28 03:08N 43°36' W 003°48'30610.0
2014-Jun-26 20:33N 48°29' W 005°54'152 9.5
2014-Jun-26 04:33N 50°01' W 002°48'1511.7
2014-Jun-26 03:18N 50°05' W 002°26'3914.2
2014-Jun-26 00:32N 50°17' W 001°28'1414.5
2014-Jun-25 23:32N 50°20' W 001°06'1313.1
2014-Jun-25 22:32N 50°24' W 000°46'1211.2
2014-Jun-25 21:29N 50°27' W 000°28'1010.5
2014-Jun-25 20:30N 50°29' W 000°13'14 9.9
2014-Jun-25 19:08N 50°32' E 000°08'610.1
2014-Jun-25 18:34N 50°34' E 000°17'1111.0
2014-Jun-25 17:33N 50°38' E 000°33'1312.6
2014-Jun-25 16:33N 50°45' E 000°49'1313.2
2014-Jun-25 15:33N 50°53' E 001°06'1412.8
2014-Jun-25 14:26N 51°02' E 001°24'1011.7
2014-Jun-25 13:34N 51°09' E 001°36'1110.6
2014-Jun-25 12:33N 51°16' E 001°48'1010.5
2014-Jun-25 11:33N 51°24' E 001°59'1111.1
2014-Jun-25 10:31N 51°21' E 002°17'1111.1
2014-Jun-25 09:33N 51°23' E 002°34'1111.4
2014-Jun-25 08:33N 51°22' E 002°52'1211.4
2014-Jun-25 07:32N 51°24' E 003°10'1211.8
2014-Jun-25 06:33N 51°25' E 003°29'9 8.6
2014-Jun-25 05:33N 51°25' E 003°42'8 8.2
2014-Jun-25 04:33N 51°22' E 003°55'6 6.4
2014-Jun-25 03:33N 51°22' E 004°05'8 8.1
2014-Jun-25 02:34N 51°18' E 004°16'3 2.9
2014-Jun-25 01:34N 51°17' E 004°20'3 2.4
2014-Jun-25 00:29N 51°15' E 004°23'0 0.0
2014-Jun-24 23:32N 51°15' E 004°23'0 0.0
2014-Jun-24 22:32N 51°15' E 004°23'0 0.0
2014-Jun-24 21:32N 51°15' E 004°23'0 0.0
2014-Jun-24 20:32N 51°15' E 004°23'0 0.0
2014-Jun-24 19:32N 51°15' E 004°23'0 0.0
2014-Jun-24 18:32N 51°15' E 004°23'0 0.0
2014-Jun-24 17:32N 51°15' E 004°23'0 0.0
2014-Jun-24 16:32N 51°15' E 004°23'0 0.0
2014-Jun-24 15:32N 51°15' E 004°23'0 0.0
2014-Jun-24 14:32N 51°15' E 004°23'0 0.0
2014-Jun-24 13:32N 51°15' E 004°23'0 0.0
2014-Jun-24 12:32N 51°15' E 004°23'0 0.0
2014-Jun-24 11:29N 51°15' E 004°23'0 0.0
2014-Jun-24 10:29N 51°15' E 004°23'0 0.0
2014-Jun-24 09:32N 51°15' E 004°23'0 0.0
2014-Jun-24 08:32N 51°15' E 004°23'0 0.0
2014-Jun-24 07:32N 51°15' E 004°23'0 0.0
2014-Jun-24 06:32N 51°15' E 004°23'0 0.0
2014-Jun-24 05:32N 51°15' E 004°23'0 0.0
2014-Jun-24 04:32N 51°15' E 004°23'0 0.0
2014-Jun-24 03:32N 51°15' E 004°23'0 0.0
2014-Jun-24 02:32N 51°15' E 004°23'0 0.0
2014-Jun-24 01:32N 51°15' E 004°23'0 0.0
2014-Jun-24 00:32N 51°15' E 004°23'0 0.0
2014-Jun-23 23:32N 51°15' E 004°23'0 0.0
2014-Jun-23 22:32N 51°15' E 004°23'0 0.0
2014-Jun-23 21:32N 51°15' E 004°23'0 0.0
2014-Jun-23 20:32N 51°15' E 004°23'0 0.0
2014-Jun-23 19:32N 51°15' E 004°23'0 0.0
2014-Jun-23 18:32N 51°15' E 004°23'0 0.0
2014-Jun-23 17:32N 51°15' E 004°23'0 0.0
2014-Jun-23 16:32N 51°15' E 004°23'0 0.0
2014-Jun-23 15:32N 51°15' E 004°23'0 0.0
2014-Jun-23 14:32N 51°15' E 004°23'0 0.0
2014-Jun-23 12:32N 51°15' E 004°23'0 0.0
2014-Jun-23 11:32N 51°15' E 004°23'0 0.0
2014-Jun-23 10:32N 51°15' E 004°23'0 0.0
2014-Jun-23 09:32N 51°15' E 004°23'0 0.0
2014-Jun-23 08:32N 51°15' E 004°23'0 0.0
2014-Jun-23 07:32N 51°15' E 004°23'0 0.0
2014-Jun-23 06:32N 51°15' E 004°23'0 0.0
2014-Jun-23 05:32N 51°15' E 004°23'0 0.0
2014-Jun-23 04:32N 51°15' E 004°23'0 0.0
2014-Jun-23 03:32N 51°15' E 004°23'0 0.0
2014-Jun-23 02:29N 51°15' E 004°23'0 0.0
2014-Jun-23 01:32N 51°15' E 004°23'0 0.0
2014-Jun-23 00:32N 51°15' E 004°23'0 0.0
2014-Jun-22 23:32N 51°15' E 004°23'0 0.0
2014-Jun-22 22:29N 51°15' E 004°23'0 0.0
2014-Jun-22 21:32N 51°15' E 004°23'0 0.0
2014-Jun-22 20:32N 51°15' E 004°23'0 0.0
2014-Jun-22 19:32N 51°15' E 004°23'0 0.0
2014-Jun-22 18:32N 51°15' E 004°23'0 0.0
2014-Jun-22 17:32N 51°15' E 004°23'0 0.0
2014-Jun-22 16:32N 51°15' E 004°23'0 0.0
2014-Jun-22 15:32N 51°15' E 004°23'0 0.0
2014-Jun-22 14:32N 51°15' E 004°23'0 0.0
2014-Jun-22 13:32N 51°15' E 004°23'0 0.0
2014-Jun-22 12:32N 51°15' E 004°23'0 0.0
2014-Jun-22 11:32N 51°15' E 004°23'0 0.0
2014-Jun-22 10:32N 51°15' E 004°23'0 0.0
2014-Jun-22 09:32N 51°15' E 004°23'0 0.0
2014-Jun-22 08:32N 51°15' E 004°23'0 0.0
2014-Jun-22 07:32N 51°15' E 004°23'0 0.0
2014-Jun-22 06:32N 51°15' E 004°23'0 0.0
2014-Jun-22 05:32N 51°15' E 004°23'0 0.0
2014-Jun-22 04:32N 51°15' E 004°23'0 0.0
2014-Jun-22 03:32N 51°15' E 004°23'0 0.0
2014-Jun-22 02:32N 51°15' E 004°23'0 0.0
2014-Jun-22 01:32N 51°15' E 004°23'0 0.0
2014-Jun-22 00:32N 51°15' E 004°23'0 0.0
2014-Jun-21 23:32N 51°15' E 004°23'0 0.0
2014-Jun-21 21:29N 51°15' E 004°23'0 0.0
2014-Jun-21 20:32N 51°15' E 004°23'0 0.0
2014-Jun-21 19:32N 51°15' E 004°23'0 0.0
2014-Jun-21 18:29N 51°15' E 004°23'0 0.0
2014-Jun-21 17:32N 51°15' E 004°23'0 0.0
2014-Jun-21 16:32N 51°15' E 004°23'0 0.0
2014-Jun-21 15:32N 51°15' E 004°23'0 0.0
2014-Jun-21 14:32N 51°15' E 004°23'0 0.0
2014-Jun-21 13:32N 51°15' E 004°23'0 0.0
2014-Jun-21 12:32N 51°15' E 004°23'0 0.0
2014-Jun-21 11:32N 51°15' E 004°23'0 0.0
2014-Jun-21 10:32N 51°15' E 004°23'0 0.0
2014-Jun-21 09:32N 51°15' E 004°23'0 0.0
2014-Jun-21 08:32N 51°15' E 004°23'0 0.0
2014-Jun-21 07:32N 51°15' E 004°23'0 0.0
2014-Jun-21 06:32N 51°15' E 004°23'0 0.0
2014-Jun-21 05:29N 51°15' E 004°23'0 0.0
2014-Jun-21 04:32N 51°15' E 004°23'0 0.0
2014-Jun-21 03:32N 51°15' E 004°23'0 0.0
2014-Jun-21 02:32N 51°15' E 004°23'0 0.0
2014-Jun-21 01:29N 51°15' E 004°23'  

Dump ship's entire track history